Time;durP1;ratioP1;P1;durP2;ratioP2;P2;SDS_P1;SDS_P2;PMS_P1;PMS_P2;Temp;Humidity;BMP_temperature;BMP_pressure;BME280_temperature;BME280_humidity;BME280_pressure;Samples;Min_cycle;Max_cycle;Signal;HPM_P1;HPM_P2
2021/03/14 00:01:00;;;;;;;0.80;0.50;;;20.70;50.90;;;;;;5090816;28;20866;-41
2021/03/14 00:03:28;;;;;;;0.88;0.38;;;20.70;50.40;;;;;;5074352;28;20025;-49
2021/03/14 00:05:54;;;;;;;0.55;0.20;;;20.70;50.20;;;;;;5083556;28;20031;-44
2021/03/14 00:08:26;;;;;;;0.98;0.40;;;20.70;50.40;;;;;;5084405;28;20024;-42
2021/03/14 00:10:54;;;;;;;2.13;0.52;;;20.70;50.80;;;;;;5086882;28;20068;-42
2021/03/14 00:13:23;;;;;;;1.17;0.40;;;20.70;50.30;;;;;;5071227;28;20047;-45
2021/03/14 00:15:49;;;;;;;1.65;0.40;;;20.70;50.30;;;;;;5087503;28;20027;-43
2021/03/14 00:18:16;;;;;;;0.60;0.40;;;20.70;50.30;;;;;;5091000;28;20350;-38
2021/03/14 00:20:42;;;;;;;0.90;0.30;;;20.70;50.20;;;;;;5076352;28;20135;-41
2021/03/14 00:23:08;;;;;;;1.13;0.75;;;20.70;50.20;;;;;;5071443;28;20032;-43
2021/03/14 00:25:34;;;;;;;0.30;0.30;;;20.60;50.20;;;;;;5070442;28;20024;-47
2021/03/14 00:28:01;;;;;;;2.38;0.57;;;20.70;50.30;;;;;;5077863;28;20467;-47
2021/03/14 00:30:27;;;;;;;2.63;0.73;;;20.70;50.40;;;;;;5070595;28;20032;-50
2021/03/14 00:32:53;;;;;;;0.98;0.30;;;20.60;50.30;;;;;;5078691;28;20020;-42
2021/03/14 00:35:20;;;;;;;2.10;0.38;;;20.60;50.30;;;;;;5090058;28;20522;-45
2021/03/14 00:37:46;;;;;;;1.10;0.40;;;20.70;50.30;;;;;;5089520;28;20486;-44
2021/03/14 00:40:12;;;;;;;0.70;0.43;;;20.60;50.20;;;;;;5071423;28;20094;-44
2021/03/14 00:42:39;;;;;;;0.60;0.35;;;20.60;50.20;;;;;;5074496;28;20457;-42
2021/03/14 00:45:06;;;;;;;0.55;0.40;;;20.60;50.30;;;;;;5084528;28;20025;-46
2021/03/14 00:47:33;;;;;;;0.47;0.30;;;20.60;50.30;;;;;;5069543;28;20025;-42
2021/03/14 00:49:59;;;;;;;0.63;0.45;;;20.60;50.20;;;;;;5070802;28;20036;-42
2021/03/14 00:52:24;;;;;;;0.73;0.40;;;20.60;50.20;;;;;;5078905;28;20107;-49
2021/03/14 00:54:50;;;;;;;0.93;0.32;;;20.60;50.30;;;;;;5077240;28;20029;-41
2021/03/14 00:57:16;;;;;;;0.50;0.30;;;20.60;50.30;;;;;;5084113;28;20036;-44
2021/03/14 00:59:41;;;;;;;1.35;0.50;;;20.60;50.10;;;;;;5092263;28;20059;-47
2021/03/14 01:02:07;;;;;;;0.95;0.40;;;20.60;50.00;;;;;;5094468;28;20028;-45
2021/03/14 01:04:32;;;;;;;0.35;0.30;;;20.60;50.20;;;;;;5077493;28;20082;-45
2021/03/14 01:06:58;;;;;;;2.85;0.43;;;20.60;50.80;;;;;;5074217;28;20040;-47
2021/03/14 01:09:24;;;;;;;0.52;0.20;;;20.60;50.20;;;;;;5078342;28;20024;-46
2021/03/14 01:11:49;;;;;;;0.40;0.20;;;20.60;50.30;;;;;;5093256;28;20115;-47
2021/03/14 01:14:15;;;;;;;0.77;0.30;;;20.60;50.10;;;;;;5084765;28;20521;-45
2021/03/14 01:16:41;;;;;;;0.20;0.20;;;20.60;50.30;;;;;;5081416;28;20060;-44
2021/03/14 01:19:06;;;;;;;0.45;0.10;;;20.60;50.20;;;;;;5074238;28;20028;-42
2021/03/14 01:21:32;;;;;;;0.40;0.20;;;20.70;50.00;;;;;;5081058;28;20024;-39
2021/03/14 01:23:58;;;;;;;0.40;0.35;;;20.70;50.00;;;;;;5091683;28;20036;-38
2021/03/14 01:26:24;;;;;;;0.40;0.20;;;20.70;50.10;;;;;;5084108;28;20048;-50
2021/03/14 01:28:50;;;;;;;0.77;0.20;;;20.70;49.90;;;;;;5093324;28;20082;-40
2021/03/14 01:31:17;;;;;;;1.02;0.30;;;20.70;49.80;;;;;;5093738;28;20032;-42
2021/03/14 01:33:42;;;;;;;0.32;0.30;;;20.60;49.90;;;;;;5090300;28;20422;-46
2021/03/14 01:36:08;;;;;;;0.60;0.40;;;20.70;50.20;;;;;;5092390;28;20023;-45
2021/03/14 01:38:34;;;;;;;0.75;0.40;;;20.70;50.20;;;;;;5084227;28;20493;-44
2021/03/14 01:41:00;;;;;;;0.20;0.20;;;20.70;50.00;;;;;;5083104;28;20119;-46
2021/03/14 01:43:29;;;;;;;0.22;0.22;;;20.60;50.10;;;;;;5080563;28;20538;-50
2021/03/14 01:45:54;;;;;;;0.77;0.65;;;20.60;50.10;;;;;;5083783;28;20024;-49
2021/03/14 01:48:25;;;;;;;0.70;0.32;;;20.60;50.10;;;;;;5084219;28;20083;-45
2021/03/14 01:50:51;;;;;;;2.05;0.30;;;20.60;50.00;;;;;;5083262;28;20078;-42
2021/03/14 01:53:18;;;;;;;0.95;0.40;;;20.60;50.20;;;;;;5081896;28;20101;-42
2021/03/14 01:55:44;;;;;;;1.08;0.20;;;20.60;50.10;;;;;;5080844;28;20028;-43
2021/03/14 01:58:11;;;;;;;0.47;0.30;;;20.60;50.20;;;;;;5083573;28;20043;-46
2021/03/14 02:00:37;;;;;;;1.02;0.65;;;20.60;50.10;;;;;;5082315;28;20036;-44
2021/03/14 02:03:03;;;;;;;0.40;0.22;;;20.60;50.20;;;;;;5083428;28;20025;-40
2021/03/14 02:05:28;;;;;;;0.38;0.30;;;20.70;50.00;;;;;;5082413;28;20024;-40
2021/03/14 02:07:55;;;;;;;0.63;0.32;;;20.60;50.10;;;;;;5078907;28;20029;-44
2021/03/14 02:10:24;;;;;;;0.90;0.30;;;20.70;49.90;;;;;;5079305;28;20077;-50
2021/03/14 02:13:07;;;;;;;0.68;0.32;;;20.70;50.10;;;;;;5083207;28;20081;-47
2021/03/14 02:15:36;;;;;;;0.63;0.30;;;20.70;50.10;;;;;;5083915;28;20043;-46
2021/03/14 02:18:04;;;;;;;0.82;0.68;;;20.70;50.00;;;;;;5082267;28;20063;-48
2021/03/14 02:20:31;;;;;;;0.85;0.40;;;20.70;50.10;;;;;;5078869;28;20033;-47
2021/03/14 02:23:30;;;;;;;0.25;0.20;;;20.70;50.00;;;;;;5080240;28;20094;-43
2021/03/14 02:26:08;;;;;;;0.35;0.20;;;20.60;50.00;;;;;;5080591;28;20048;-41
2021/03/14 02:28:37;;;;;;;0.30;0.30;;;20.70;49.90;;;;;;5082671;28;20032;-41
2021/03/14 02:31:05;;;;;;;0.80;0.20;;;20.60;49.90;;;;;;5082634;28;20470;-45
2021/03/14 02:33:34;;;;;;;0.45;0.20;;;20.60;50.00;;;;;;5084707;28;20043;-43
2021/03/14 02:36:00;;;;;;;1.17;0.35;;;20.70;50.00;;;;;;5081970;28;20032;-50
2021/03/14 02:38:26;;;;;;;0.22;0.20;;;20.60;49.80;;;;;;5084239;28;20403;-52
2021/03/14 02:40:56;;;;;;;0.45;0.40;;;20.70;50.00;;;;;;5082012;28;20036;-44
2021/03/14 02:43:24;;;;;;;0.47;0.20;;;20.70;49.80;;;;;;5081696;28;20028;-40
2021/03/14 02:45:52;;;;;;;0.25;0.20;;;20.70;49.80;;;;;;5085601;28;20024;-49
2021/03/14 02:48:18;;;;;;;0.75;0.40;;;20.70;49.80;;;;;;5091402;28;20059;-44
2021/03/14 02:50:46;;;;;;;0.52;0.20;;;20.70;49.90;;;;;;5081648;28;20032;-44
2021/03/14 02:53:12;;;;;;;0.47;0.30;;;20.60;49.80;;;;;;5074336;28;20085;-45
2021/03/14 02:55:38;;;;;;;0.50;0.20;;;20.70;49.90;;;;;;5087380;28;20162;-40
2021/03/14 02:58:04;;;;;;;0.10;0.10;;;20.70;50.00;;;;;;5081937;28;20482;-45
2021/03/14 03:00:34;;;;;;;1.42;0.40;;;20.70;49.80;;;;;;5090357;28;20028;-45
2021/03/14 03:03:02;;;;;;;0.35;0.20;;;20.70;49.80;;;;;;5091754;28;20032;-49
2021/03/14 03:05:28;;;;;;;0.47;0.30;;;20.70;49.80;;;;;;5074319;28;20047;-47
2021/03/14 03:07:57;;;;;;;0.52;0.30;;;20.70;49.90;;;;;;5092028;28;20024;-46
2021/03/14 03:10:40;;;;;;;0.55;0.20;;;20.70;49.80;;;;;;5082012;28;20040;-44
2021/03/14 03:13:07;;;;;;;0.20;0.20;;;20.70;49.80;;;;;;5073312;28;20473;-40
2021/03/14 03:15:33;;;;;;;0.40;0.30;;;20.70;49.80;;;;;;5078000;28;20069;-45
2021/03/14 03:18:00;;;;;;;0.30;0.20;;;20.70;49.70;;;;;;5082281;28;20024;-40
2021/03/14 03:20:27;;;;;;;1.13;0.20;;;20.70;49.80;;;;;;5090647;28;20044;-48
2021/03/14 03:22:54;;;;;;;0.20;0.20;;;20.70;49.80;;;;;;5088795;28;20066;-43
2021/03/14 03:25:20;;;;;;;0.60;0.20;;;20.70;49.70;;;;;;5072125;28;20059;-49
2021/03/14 03:27:46;;;;;;;0.20;0.20;;;20.70;49.80;;;;;;5089081;28;20044;-44
2021/03/14 03:30:15;;;;;;;0.40;0.20;;;20.70;49.60;;;;;;5079751;28;20077;-40
2021/03/14 03:32:41;;;;;;;0.20;0.20;;;20.70;49.70;;;;;;5071109;28;20499;-41
2021/03/14 03:35:11;;;;;;;0.30;0.20;;;20.70;49.80;;;;;;5073509;28;20116;-44
2021/03/14 03:37:37;;;;;;;0.60;0.20;;;20.60;49.70;;;;;;5090809;28;20036;-42
2021/03/14 03:40:05;;;;;;;0.30;0.30;;;20.70;49.80;;;;;;5091271;28;20061;-42
2021/03/14 03:42:35;;;;;;;0.20;0.20;;;20.70;49.70;;;;;;5074889;28;20029;-42
2021/03/14 03:45:03;;;;;;;0.85;0.30;;;20.70;49.80;;;;;;5076373;28;20025;-42
2021/03/14 03:47:29;;;;;;;0.70;0.30;;;20.70;49.80;;;;;;5088551;28;20358;-51
2021/03/14 03:49:56;;;;;;;0.38;0.20;;;20.60;49.80;;;;;;5089770;28;20032;-42
2021/03/14 03:52:22;;;;;;;0.47;0.25;;;20.70;49.80;;;;;;5091229;28;20016;-45
2021/03/14 03:54:49;;;;;;;0.20;0.20;;;20.70;49.80;;;;;;5075568;28;20028;-44
2021/03/14 03:57:16;;;;;;;0.25;0.25;;;20.70;49.80;;;;;;5071645;28;20036;-44
2021/03/14 03:59:43;;;;;;;0.28;0.22;;;20.70;49.80;;;;;;5073764;28;20078;-43
2021/03/14 04:02:11;;;;;;;0.10;0.10;;;20.70;49.80;;;;;;5091007;28;20035;-39
2021/03/14 04:04:40;;;;;;;0.20;0.20;;;20.70;49.80;;;;;;5090081;28;20051;-49
2021/03/14 04:07:08;;;;;;;0.57;0.30;;;20.70;49.80;;;;;;5090595;28;20028;-46
2021/03/14 04:09:34;;;;;;;0.40;0.28;;;20.70;49.80;;;;;;5090020;28;20024;-43
2021/03/14 04:12:00;;;;;;;0.20;0.17;;;20.70;49.80;;;;;;5075138;28;20484;-44
2021/03/14 04:14:27;;;;;;;0.20;0.20;;;20.70;49.80;;;;;;5077756;28;20030;-53
2021/03/14 04:16:54;;;;;;;0.40;0.17;;;20.70;49.80;;;;;;5088469;28;20464;-41
2021/03/14 04:19:22;;;;;;;0.57;0.30;;;20.70;49.60;;;;;;5090504;28;20392;-45
2021/03/14 04:21:49;;;;;;;0.38;0.20;;;20.70;49.60;;;;;;5090238;28;20115;-41
2021/03/14 04:24:17;;;;;;;0.50;0.28;;;20.70;49.80;;;;;;5090133;28;20031;-44
2021/03/14 04:26:45;;;;;;;0.77;0.20;;;20.70;49.70;;;;;;5090144;28;20035;-40
2021/03/14 04:29:12;;;;;;;0.30;0.20;;;20.70;49.70;;;;;;5089841;28;20420;-48
2021/03/14 04:31:42;;;;;;;0.20;0.20;;;20.70;49.50;;;;;;5071063;28;20044;-46
2021/03/14 04:34:09;;;;;;;0.30;0.20;;;20.70;49.60;;;;;;5074855;28;20110;-47
2021/03/14 04:36:37;;;;;;;1.38;0.30;;;20.70;49.80;;;;;;5084237;28;20032;-43
2021/03/14 04:39:03;;;;;;;1.25;0.20;;;20.70;49.60;;;;;;5094052;28;20419;-46
2021/03/14 04:41:31;;;;;;;0.47;0.20;;;20.70;49.70;;;;;;5092813;28;20034;-50
2021/03/14 04:43:57;;;;;;;0.17;0.17;;;20.70;49.60;;;;;;5085984;28;20028;-44
2021/03/14 04:46:23;;;;;;;0.20;0.20;;;20.70;49.60;;;;;;5083755;28;20028;-44
2021/03/14 04:48:48;;;;;;;0.35;0.20;;;20.70;49.40;;;;;;5082809;28;20036;-43
2021/03/14 04:51:15;;;;;;;0.65;0.20;;;20.70;49.50;;;;;;5094411;28;20028;-43
2021/03/14 04:53:41;;;;;;;0.25;0.20;;;20.70;49.50;;;;;;5085236;28;20025;-41
2021/03/14 04:56:08;;;;;;;0.20;0.10;;;20.70;49.60;;;;;;5080330;28;20073;-40
2021/03/14 04:58:36;;;;;;;0.35;0.20;;;20.70;49.60;;;;;;5092597;28;20386;-45
2021/03/14 05:01:03;;;;;;;0.65;0.20;;;20.70;49.60;;;;;;5081399;28;20029;-41
2021/03/14 05:03:30;;;;;;;0.80;0.30;;;20.70;49.60;;;;;;5089233;28;20537;-46
2021/03/14 05:05:57;;;;;;;0.30;0.20;;;20.80;49.60;;;;;;5091422;28;20024;-40
2021/03/14 05:08:24;;;;;;;0.32;0.20;;;20.70;49.50;;;;;;5088435;28;20028;-48
2021/03/14 05:10:52;;;;;;;0.10;0.10;;;20.70;49.50;;;;;;5084198;28;20368;-45
2021/03/14 05:13:18;;;;;;;0.45;0.22;;;20.70;49.70;;;;;;5086406;28;20032;-48
2021/03/14 05:15:49;;;;;;;0.10;0.10;;;20.70;49.50;;;;;;5093455;28;20358;-45
2021/03/14 05:18:15;;;;;;;0.63;0.30;;;20.70;49.50;;;;;;5076563;28;20032;-46
2021/03/14 05:20:41;;;;;;;0.40;0.22;;;20.70;49.60;;;;;;5092780;28;20028;-46
2021/03/14 05:23:07;;;;;;;0.90;0.20;;;20.70;49.70;;;;;;5093989;28;20028;-43
2021/03/14 05:25:33;;;;;;;0.75;0.30;;;20.70;49.50;;;;;;5080069;28;20089;-46
2021/03/14 05:28:01;;;;;;;0.22;0.10;;;20.70;49.40;;;;;;5076614;28;20036;-43
2021/03/14 05:30:30;;;;;;;0.30;0.28;;;20.70;49.50;;;;;;5093336;28;20051;-49
2021/03/14 05:32:56;;;;;;;0.45;0.20;;;20.70;49.40;;;;;;5076942;28;20058;-42
2021/03/14 05:35:24;;;;;;;0.10;0.10;;;20.70;49.50;;;;;;5093596;28;20366;-41
2021/03/14 05:37:50;;;;;;;0.40;0.20;;;20.70;49.50;;;;;;5082829;28;20635;-44
2021/03/14 05:40:18;;;;;;;0.40;0.30;;;20.70;49.40;;;;;;5073871;28;20039;-40
2021/03/14 05:42:44;;;;;;;0.60;0.20;;;20.70;49.50;;;;;;5080926;28;20067;-38
2021/03/14 05:45:11;;;;;;;0.25;0.25;;;20.70;49.60;;;;;;5076706;28;20040;-41
2021/03/14 05:47:37;;;;;;;0.57;0.30;;;20.70;49.40;;;;;;5084080;28;20032;-44
2021/03/14 05:50:06;;;;;;;0.90;0.30;;;20.70;49.40;;;;;;5085480;28;20056;-46
2021/03/14 05:52:32;;;;;;;0.93;0.28;;;20.70;49.50;;;;;;5091286;28;20028;-50
2021/03/14 05:55:00;;;;;;;0.22;0.20;;;20.70;49.50;;;;;;5092629;28;20028;-43
2021/03/14 05:57:26;;;;;;;0.57;0.20;;;20.70;49.30;;;;;;5076237;28;20089;-43
2021/03/14 05:59:52;;;;;;;0.70;0.30;;;20.70;49.40;;;;;;5073213;28;20080;-44
2021/03/14 06:02:19;;;;;;;1.23;0.65;;;20.70;49.60;;;;;;5073629;28;20031;-49
2021/03/14 06:04:46;;;;;;;1.70;0.30;;;20.70;49.40;;;;;;5072812;28;20032;-42
2021/03/14 06:07:12;;;;;;;0.55;0.30;;;20.70;49.40;;;;;;5073225;28;20020;-50
2021/03/14 06:09:39;;;;;;;0.32;0.20;;;20.70;49.60;;;;;;5052078;28;20063;-45
2021/03/14 06:12:09;;;;;;;0.88;0.38;;;20.70;49.40;;;;;;5073388;28;20044;-40
2021/03/14 06:14:35;;;;;;;1.17;0.20;;;20.70;49.50;;;;;;5076272;28;20036;-45
2021/03/14 06:17:01;;;;;;;0.45;0.20;;;20.70;49.50;;;;;;5077293;28;20484;-43
2021/03/14 06:19:26;;;;;;;0.25;0.20;;;20.70;49.40;;;;;;5089816;28;20400;-42
2021/03/14 06:22:12;;;;;;;0.22;0.20;;;20.70;49.40;;;;;;5090172;28;20032;-47
2021/03/14 06:24:38;;;;;;;0.50;0.20;;;20.70;49.40;;;;;;5091387;28;20028;-44
2021/03/14 06:27:04;;;;;;;0.32;0.20;;;20.70;49.40;;;;;;5083599;28;20435;-47
2021/03/14 06:29:29;;;;;;;1.20;0.30;;;20.70;49.40;;;;;;5092693;28;20032;-50
2021/03/14 06:32:00;;;;;;;0.20;0.20;;;20.70;49.50;;;;;;5091902;28;20123;-46
2021/03/14 06:34:33;;;;;;;0.25;0.25;;;20.70;50.00;;;;;;5073484;28;20149;-44
2021/03/14 06:37:20;;;;;;;0.75;0.22;;;20.70;49.40;;;;;;5072564;28;20025;-43
2021/03/14 06:39:49;;;;;;;0.50;0.28;;;20.70;49.50;;;;;;5080861;28;20071;-45
2021/03/14 06:42:34;;;;;;;0.45;0.22;;;20.70;49.50;;;;;;5092579;28;20090;-45
2021/03/14 06:45:12;;;;;;;0.63;0.30;;;20.80;49.40;;;;;;5073327;28;20029;-46
2021/03/14 06:47:38;;;;;;;0.15;0.15;;;20.70;49.30;;;;;;5074220;28;20674;-52
2021/03/14 06:50:06;;;;;;;1.02;0.30;;;20.70;49.30;;;;;;5085491;28;20046;-46
2021/03/14 06:52:32;;;;;;;0.52;0.30;;;20.80;49.30;;;;;;5075668;28;20025;-54
2021/03/14 06:54:58;;;;;;;1.23;0.30;;;20.80;49.50;;;;;;5071914;28;20428;-45
2021/03/14 06:57:24;;;;;;;0.95;0.20;;;20.90;49.20;;;;;;5078098;28;20089;-45
2021/03/14 07:00:00;;;;;;;1.48;0.30;;;20.90;49.10;;;;;;5090526;28;20056;-46
2021/03/14 07:02:30;;;;;;;1.90;0.30;;;20.90;49.00;;;;;;5080004;28;20445;-46
2021/03/14 07:04:58;;;;;;;0.68;0.40;;;21.00;49.00;;;;;;5071350;28;20029;-45
2021/03/14 07:07:37;;;;;;;1.38;0.25;;;21.00;48.90;;;;;;5071653;28;20052;-46
2021/03/14 07:10:11;;;;;;;0.47;0.30;;;21.00;49.00;;;;;;5071404;28;20077;-45
2021/03/14 07:12:47;;;;;;;0.30;0.30;;;21.00;48.90;;;;;;5087686;28;20063;-43
2021/03/14 07:15:22;;;;;;;0.20;0.20;;;21.10;48.70;;;;;;5073714;28;20033;-41
2021/03/14 07:17:52;;;;;;;0.43;0.30;;;21.10;48.70;;;;;;5091158;28;20036;-46
2021/03/14 07:20:32;;;;;;;2.92;0.30;;;21.10;48.80;;;;;;5091427;28;20081;-45
2021/03/14 07:23:08;;;;;;;1.52;0.40;;;21.20;49.40;;;;;;5077263;28;20107;-42
2021/03/14 07:25:41;;;;;;;3.10;0.40;;;21.20;48.70;;;;;;5069731;28;20032;-53
2021/03/14 07:28:06;;;;;;;0.77;0.20;;;21.20;48.70;;;;;;5077478;28;20032;-41
2021/03/14 07:30:34;;;;;;;2.70;0.50;;;21.10;48.60;;;;;;5091080;28;20140;-49
2021/03/14 07:33:00;;;;;;;1.70;0.30;;;21.20;48.60;;;;;;5089925;28;20024;-50
2021/03/14 07:35:27;;;;;;;0.50;0.30;;;21.20;48.60;;;;;;5077760;28;20032;-46
2021/03/14 07:37:55;;;;;;;3.17;0.40;;;21.20;48.80;;;;;;5070731;28;20021;-44
2021/03/14 07:40:24;;;;;;;0.85;0.38;;;21.30;48.70;;;;;;5084994;28;20316;-45
2021/03/14 07:43:00;;;;;;;0.60;0.22;;;21.30;48.70;;;;;;5090629;28;20028;-45
2021/03/14 07:45:28;;;;;;;2.08;0.73;;;21.30;48.80;;;;;;5090799;28;20042;-43
2021/03/14 07:47:54;;;;;;;0.45;0.30;;;21.30;48.80;;;;;;5085031;28;20029;-47
2021/03/14 07:50:36;;;;;;;0.60;0.30;;;21.30;48.90;;;;;;5086114;28;20044;-44
2021/03/14 07:53:10;;;;;;;1.40;0.40;;;21.30;48.90;;;;;;5079246;28;20067;-55
2021/03/14 07:55:38;;;;;;;0.68;0.30;;;21.30;48.80;;;;;;5073931;28;20103;-54
2021/03/14 07:58:05;;;;;;;10.48;2.15;;;21.30;48.80;;;;;;5081400;28;20040;-53
2021/03/14 08:00:38;;;;;;;1.27;0.73;;;21.30;48.90;;;;;;5071881;28;20048;-53
2021/03/14 08:03:07;;;;;;;0.98;0.40;;;21.30;48.70;;;;;;5071441;28;20035;-54
2021/03/14 08:05:42;;;;;;;3.42;0.55;;;21.30;48.70;;;;;;5088205;28;20368;-54
2021/03/14 08:08:24;;;;;;;0.95;0.30;;;21.30;48.80;;;;;;5077096;28;20436;-54
2021/03/14 08:10:51;;;;;;;2.30;0.30;;;21.30;48.80;;;;;;5083725;28;20030;-54
2021/03/14 08:13:36;;;;;;;1.55;0.40;;;21.30;48.90;;;;;;5080877;28;20067;-53
2021/03/14 08:16:07;;;;;;;1.70;0.35;;;21.30;48.80;;;;;;5083251;28;20472;-54
2021/03/14 08:18:42;;;;;;;0.75;0.22;;;21.40;48.90;;;;;;5086669;28;20036;-52
2021/03/14 08:21:20;;;;;;;1.13;0.40;;;21.30;48.70;;;;;;5081943;28;20112;-56
2021/03/14 08:23:50;;;;;;;1.75;0.47;;;21.40;48.90;;;;;;5085441;28;20028;-55
2021/03/14 08:26:32;;;;;;;0.80;0.40;;;21.40;48.90;;;;;;5083555;28;20123;-53
2021/03/14 08:29:10;;;;;;;1.08;0.35;;;21.40;48.70;;;;;;5086017;28;20028;-54
2021/03/14 08:31:47;;;;;;;1.95;0.38;;;21.40;48.40;;;;;;5080876;28;20032;-51
2021/03/14 08:34:39;;;;;;;2.47;0.43;;;21.30;48.20;;;;;;5082870;28;20031;-46
2021/03/14 08:37:24;;;;;;;0.60;0.30;;;21.40;48.30;;;;;;5081100;28;20131;-44
2021/03/14 08:39:59;;;;;;;1.03;0.40;;;21.40;48.10;;;;;;5084915;28;20028;-43
2021/03/14 08:43:02;;;;;;;1.60;0.20;;;21.40;48.50;;;;;;5085047;28;20081;-51
2021/03/14 08:45:28;;;;;;;0.88;0.30;;;21.40;48.30;;;;;;5083947;28;20392;-52
2021/03/14 08:47:54;;;;;;;0.95;0.30;;;21.40;48.30;;;;;;5084409;28;20016;-53
2021/03/14 08:50:20;;;;;;;2.15;0.45;;;21.40;48.20;;;;;;5083185;28;20027;-45
2021/03/14 08:52:46;;;;;;;2.28;0.50;;;21.50;48.50;;;;;;5082628;28;20444;-48
2021/03/14 08:55:13;;;;;;;1.75;0.43;;;21.40;48.30;;;;;;5082072;28;20035;-51
2021/03/14 08:57:39;;;;;;;3.17;0.68;;;21.40;48.40;;;;;;5085713;28;20141;-46
2021/03/14 09:00:07;;;;;;;1.55;0.40;;;21.50;48.30;;;;;;5082464;28;20055;-48
2021/03/14 09:02:35;;;;;;;1.02;0.30;;;21.50;48.30;;;;;;5087322;28;20024;-50
2021/03/14 09:05:19;;;;;;;1.13;0.60;;;21.50;48.60;;;;;;5083739;28;20020;-51
2021/03/14 09:07:58;;;;;;;0.88;0.30;;;21.50;48.30;;;;;;5083175;28;20032;-47
2021/03/14 09:10:25;;;;;;;1.02;0.38;;;21.40;48.30;;;;;;5084937;28;20059;-53
2021/03/14 09:12:59;;;;;;;0.57;0.30;;;21.50;48.60;;;;;;5079836;28;20024;-52
2021/03/14 09:15:27;;;;;;;4.22;0.47;;;21.50;48.60;;;;;;5092924;28;20419;-55
2021/03/14 09:17:57;;;;;;;9.63;1.27;;;21.50;48.80;;;;;;5076261;28;20373;-53
2021/03/14 09:20:24;;;;;;;1.95;0.52;;;21.60;49.00;;;;;;5072791;28;20211;-60
2021/03/14 09:22:50;;;;;;;4.65;0.73;;;21.60;49.90;;;;;;5081317;28;20024;-57
2021/03/14 09:25:16;;;;;;;3.83;1.00;;;21.60;49.80;;;;;;5075601;28;20860;-55
2021/03/14 09:27:44;;;;;;;2.97;0.50;;;21.60;50.50;;;;;;5086829;28;20033;-56
2021/03/14 09:30:18;;;;;;;1.33;0.50;;;21.60;50.50;;;;;;5075713;28;20381;-57
2021/03/14 09:32:52;;;;;;;1.83;0.52;;;21.50;50.50;;;;;;5086719;28;20032;-58
2021/03/14 09:35:21;;;;;;;2.05;0.40;;;21.50;50.50;;;;;;5087909;28;20062;-55
2021/03/14 09:38:06;;;;;;;1.33;0.40;;;21.50;50.60;;;;;;5080271;28;20135;-59
2021/03/14 09:40:44;;;;;;;5.40;0.70;;;21.50;50.50;;;;;;5092995;28;20085;-59
2021/03/14 09:43:16;;;;;;;2.45;0.55;;;21.50;50.60;;;;;;5074709;28;20024;-55
2021/03/14 09:45:50;;;;;;;1.70;0.30;;;21.50;50.60;;;;;;5084128;28;20497;-56
2021/03/14 09:48:34;;;;;;;5.22;0.70;;;21.50;50.70;;;;;;5075576;28;20029;-49
2021/03/14 09:51:07;;;;;;;2.38;0.50;;;21.60;50.50;;;;;;5073730;28;20480;-59
2021/03/14 09:53:42;;;;;;;2.92;0.47;;;21.50;50.60;;;;;;5086078;28;20024;-58
2021/03/14 09:56:09;;;;;;;1.05;0.40;;;21.60;50.80;;;;;;5086981;28;20036;-59
2021/03/14 09:58:35;;;;;;;3.53;0.60;;;21.50;50.70;;;;;;5087794;28;20533;-58
2021/03/14 10:01:02;;;;;;;0.90;0.40;;;21.50;51.00;;;;;;5072715;28;20033;-60
2021/03/14 10:03:30;;;;;;;2.95;0.50;;;21.60;50.70;;;;;;5072912;28;20111;-58
2021/03/14 10:06:05;;;;;;;2.72;0.80;;;21.50;50.70;;;;;;5081863;28;20490;-53
2021/03/14 10:08:33;;;;;;;2.45;0.43;;;21.50;50.60;;;;;;5087667;28;20392;-55
2021/03/14 10:11:05;;;;;;;3.50;0.50;;;21.60;50.80;;;;;;5089314;28;20099;-50
2021/03/14 10:13:33;;;;;;;;;;;21.50;50.80;;;;;;5073331;28;20055;-53
2021/03/14 10:16:01;;;;;;;2.92;0.50;;;21.50;50.70;;;;;;5071494;28;19916;-57
2021/03/14 10:18:29;;;;;;;1.80;0.50;;;21.60;50.80;;;;;;5089369;28;20473;-56
2021/03/14 10:21:22;;;;;;;11.07;1.00;;;21.50;50.70;;;;;;5084725;28;20036;-53
2021/03/14 10:23:50;;;;;;;1.80;0.57;;;21.50;50.70;;;;;;5082047;28;20063;-59
2021/03/14 10:26:16;;;;;;;3.65;0.40;;;21.50;51.00;;;;;;5078839;28;20031;-58
2021/03/14 10:28:46;;;;;;;3.97;0.70;;;21.50;50.80;;;;;;5073778;28;20052;-57
2021/03/14 10:31:12;;;;;;;3.45;0.57;;;21.50;50.80;;;;;;5084479;28;20067;-57
2021/03/14 10:33:42;;;;;;;4.30;0.40;;;21.60;51.00;;;;;;5087124;28;20111;-53
2021/03/14 10:36:10;;;;;;;2.25;0.68;;;21.60;50.80;;;;;;5083075;28;20051;-55
2021/03/14 10:39:03;;;;;;;1.42;0.40;;;21.60;50.80;;;;;;5072536;28;20028;-55
2021/03/14 10:41:38;;;;;;;0.50;0.30;;;21.50;50.90;;;;;;5075304;28;20062;-53
2021/03/14 10:44:04;;;;;;;1.05;0.30;;;21.50;51.10;;;;;;5090272;28;20024;-53
2021/03/14 10:46:39;;;;;;;1.77;0.45;;;21.50;50.90;;;;;;5083878;28;20052;-50
2021/03/14 10:49:10;;;;;;;1.25;0.60;;;21.50;51.00;;;;;;5073308;28;20063;-57
2021/03/14 10:51:38;;;;;;;7.45;0.68;;;21.60;50.30;;;;;;5073265;28;20069;-52
2021/03/14 10:54:15;;;;;;;5.47;0.60;;;21.80;49.30;;;;;;5088284;28;20024;-49
2021/03/14 10:56:51;;;;;;;8.60;0.50;;;21.70;47.80;;;;;;5082667;28;20044;-51
2021/03/14 10:59:29;;;;;;;8.05;0.60;;;21.70;47.00;;;;;;5074462;28;20128;-55
2021/03/14 11:02:16;;;;;;;5.68;0.73;;;21.60;47.60;;;;;;5085374;28;20036;-48
2021/03/14 11:04:52;;;;;;;3.72;1.05;;;21.50;46.60;;;;;;5079895;28;20024;-51
2021/03/14 11:07:28;;;;;;;3.78;0.60;;;;;;;;;;5091154;28;20579;-52
2021/03/14 11:10:15;;;;;;;4.30;0.60;;;19.40;32.70;;;;;;5089544;28;20473;-44
2021/03/14 11:12:43;;;;;;;4.13;0.63;;;18.50;34.10;;;;;;5087232;28;20024;-51
2021/03/14 11:15:31;;;;;;;2.72;0.70;;;18.20;34.60;;;;;;5071687;28;20119;-46
2021/03/14 11:17:58;;;;;;;4.97;0.80;;;17.90;33.80;;;;;;5081322;28;20800;-48
2021/03/14 11:20:27;;;;;;;1.48;0.70;;;18.20;35.20;;;;;;5072750;28;20037;-47
2021/03/14 11:22:54;;;;;;;6.90;0.98;;;19.20;35.80;;;;;;5066509;28;20484;-49
2021/03/14 11:25:21;;;;;;;5.18;0.77;;;19.70;36.70;;;;;;5077135;28;20053;-46
2021/03/14 11:27:48;;;;;;;2.72;0.90;;;20.10;37.50;;;;;;5090035;28;20029;-49
2021/03/14 11:30:16;;;;;;;6.45;0.82;;;20.30;37.70;;;;;;5086020;28;20081;-48
2021/03/14 11:32:42;;;;;;;3.25;0.70;;;20.40;37.50;;;;;;5090869;28;20035;-50
2021/03/14 11:35:09;;;;;;;4.70;1.65;;;20.50;37.60;;;;;;5087981;28;20559;-45
2021/03/14 11:37:35;;;;;;;2.33;0.52;;;20.60;37.70;;;;;;5071056;28;20381;-45
2021/03/14 11:40:01;;;;;;;5.07;1.15;;;20.60;38.00;;;;;;5076520;28;20016;-45
2021/03/14 11:42:27;;;;;;;2.17;0.70;;;20.50;38.10;;;;;;5083967;28;20024;-47
2021/03/14 11:44:55;;;;;;;1.02;0.50;;;20.60;38.30;;;;;;5086280;28;20491;-46
2021/03/14 11:47:21;;;;;;;2.85;0.77;;;20.60;38.50;;;;;;5086821;28;20035;-48
2021/03/14 11:49:47;;;;;;;2.88;0.47;;;20.60;38.60;;;;;;5090623;28;20032;-51
2021/03/14 11:52:13;;;;;;;6.88;1.33;;;20.60;38.70;;;;;;5089556;28;20035;-45
2021/03/14 11:54:38;;;;;;;2.78;0.63;;;20.60;38.80;;;;;;5077778;28;20421;-51
2021/03/14 11:57:04;;;;;;;3.78;0.70;;;20.60;38.90;;;;;;5079005;28;20037;-46
2021/03/14 11:59:30;;;;;;;3.10;0.73;;;20.70;39.10;;;;;;5073334;28;20060;-45
2021/03/14 12:01:56;;;;;;;2.85;0.50;;;20.70;39.10;;;;;;5090301;28;20051;-48
2021/03/14 12:04:22;;;;;;;2.78;0.70;;;20.70;39.20;;;;;;5072543;28;20029;-51
2021/03/14 12:06:48;;;;;;;3.00;0.88;;;20.70;39.30;;;;;;5076941;28;20389;-52
2021/03/14 12:09:14;;;;;;;3.50;0.68;;;20.70;39.40;;;;;;5082691;28;20047;-46
2021/03/14 12:11:39;;;;;;;2.13;0.70;;;20.70;39.60;;;;;;5088376;28;20036;-54
2021/03/14 12:14:05;;;;;;;5.72;0.80;;;20.70;39.60;;;;;;5090240;28;20107;-47
2021/03/14 12:16:31;;;;;;;1.48;0.55;;;20.80;39.70;;;;;;5074618;28;20515;-50
2021/03/14 12:18:56;;;;;;;2.15;0.77;;;20.70;39.70;;;;;;5079824;28;20031;-47
2021/03/14 12:21:22;;;;;;;2.97;0.60;;;20.70;39.80;;;;;;5078500;28;20039;-45
2021/03/14 12:23:48;;;;;;;1.95;0.60;;;20.80;39.90;;;;;;5087270;28;20393;-47
2021/03/14 12:26:13;;;;;;;1.10;0.70;;;20.80;40.00;;;;;;5081959;28;20032;-48
2021/03/14 12:28:39;;;;;;;3.53;0.52;;;20.80;40.00;;;;;;5077225;28;20052;-45
2021/03/14 12:31:05;;;;;;;2.15;0.80;;;20.80;40.10;;;;;;5078032;28;20103;-48
2021/03/14 12:33:30;;;;;;;1.67;0.57;;;20.80;40.10;;;;;;5087484;28;20032;-46
2021/03/14 12:35:56;;;;;;;1.80;0.50;;;20.80;40.20;;;;;;5069982;28;20029;-47
2021/03/14 12:38:22;;;;;;;2.20;0.55;;;20.80;40.20;;;;;;5087865;28;20457;-45
2021/03/14 12:40:48;;;;;;;1.13;0.40;;;20.80;40.30;;;;;;5077237;28;20028;-50
2021/03/14 12:43:18;;;;;;;2.15;0.50;;;20.80;40.30;;;;;;5070525;28;20366;-49
2021/03/14 12:45:47;;;;;;;3.00;0.60;;;20.80;40.40;;;;;;5084374;28;20041;-50
2021/03/14 12:48:13;;;;;;;1.80;0.50;;;20.80;40.40;;;;;;5086643;28;20111;-46
2021/03/14 12:50:39;;;;;;;2.25;0.50;;;20.80;40.50;;;;;;5073319;28;20469;-45
2021/03/14 12:53:05;;;;;;;2.28;0.60;;;20.80;40.50;;;;;;5077303;28;20040;-47
2021/03/14 12:55:30;;;;;;;3.05;0.93;;;20.80;40.60;;;;;;5082526;28;20028;-50
2021/03/14 12:57:56;;;;;;;2.35;0.90;;;20.80;40.60;;;;;;5091891;28;20111;-47